Station: Kimba

  Atmospheric Gas Attenuation - ITU Rec 676-11   --------------- db/100km ---------------
Date Time Temp RH % AH g/m3 Dew Point Wind Direction Speed kph Gust kph Barometer mB Rainfall Since 9am 24GHz 47GHz 76GHz 122GHz 134GHz 241GHz
27 09:00 12.2 63 6.8 5.4 7 1013.1 0 15.8 23.5 33.5 87.5 76.9 263.1
26 09:00 12.5 50 5.5 2.3 7 1013.1 0 13.0 21.5 28.5 74.3 60.8 206.3
25 09:00 8.2 77 6.45 4.4 30 1013.1 12 15.2 24.0 33.8 88.3 76.4 260.6
24 09:00 10 87 8.18 8 7 1013.1 4 18.9 26.3 40.0 104.9 97.6 335.0
23 09:00 11.2 73 7.4 6.6 0 1013.1 0 17.1 24.7 36.2 94.9 85.7 293.6
22 09:00 12.4 74 8.09 8 0 1013.1 0 18.6 25.5 38.4 100.8 93.4 320.7
21 09:00 13.8 45 5.36 2.1 0 1013.1 0 12.7 21.0 27.6 71.8 58.1 197.3
20 09:00 17.4 74 10.97 12.8 0 1013.1 0 24.5 28.7 47.5 125.0 125.0 432.1
19 09:00 14.2 82 10.01 11.2 0 1013.1 13 22.6 28.1 45.4 119.3 116.9 403.2
18 09:00 23 38 7.81 8 30 1013.1 0 17.5 22.3 32.7 85.7 78.5 269.8
17 09:00 18.5 42 6.64 5.3 37 1013.1 0 15.2 21.7 30.4 79.4 69.2 236.8
16 09:00 18.5 38 6.01 3.9 0 1013.1 0 13.9 20.8 28.2 73.6 62.1 211.7
15 09:00 13.5 72 8.42 8.6 0 1013.1 0 19.2 25.7 39.2 102.9 96.4 331.4
14 09:00 14 67 8.08 8.1 11 1013.1 0 18.5 25.0 37.6 98.7 91.4 313.8
13 09:00 12.5 66 7.26 6.3 11 1013.1 0.2 16.8 24.1 35.1 91.9 82.5 282.6
12 09:00 20.5 45 8.01 8.2 22 1013.1 0 18.0 23.2 34.5 90.3 83.3 286.4
11 09:00 24 36 7.83 8.2 28 1013.1 0 17.5 22.1 32.4 84.9 77.7 267.3
10 09:00 17.5 57 8.5 8.9 7 1013.1 0 19.2 24.7 37.6 98.7 92.6 318.6
09 09:00 14 67 8.08 8.1 15 1013.1 0 18.5 25.0 37.6 98.7 91.4 313.8
08 09:00 16.8 62 8.86 9.6 7 1013.1 0 20.0 25.4 39.3 103.2 98.0 337.4
07 09:00 22 20 3.88 -1.9 52 1013.1 0 9.4 17.3 20.5 52.8 37.5 125.7
06 09:00 14.6 50 6.26 4.4 4 1013.1 0 14.6 22.1 30.5 79.7 68.1 232.5
05 09:00 14.5 78 9.7 10.8 7 1013.1 0 21.9 27.5 43.9 115.4 112.2 386.8
04 09:00 13 82 9.3 10.1 22 1013.1 0 21.1 27.3 43.1 113.2 108.9 375.0
03 09:00 15 59 7.57 7 15 1013.1 0 17.3 23.9 35.2 92.2 83.8 287.3
02 09:00 15 59 7.57 7 11 1013.1 0 17.3 23.9 35.2 92.2 83.8 287.3
31 09:00 11 64 6.41 4.4 0 1013.1 0.9 15.0 23.2 32.5 84.8 73.2 249.7
30 09:00 12 88 9.38 10.1 22 1013.1 0.4 21.4 27.7 44.0 115.6 111.4 383.8
29 09:00 17 39 5.64 3 22 1013.1 0 13.2 20.6 27.5 71.6 59.0 200.8
28 09:00 9.5 100 9.1 9.5 7 1013.1 0 20.9 28.0 44.2 116.1 111.1 382.4
27 09:00 14.5 43 5.35 2.2 0 1013.1 0 12.7 20.8 27.3 71.1 57.5 195.2
26 09:00 11.4 62 6.36 4.4 0 1013.1 0 14.9 23.0 32.1 83.9 72.2 246.3
25 09:00 10.4 72 6.94 5.7 0 1013.1 0 16.2 24.2 34.8 91.0 80.5 275.5
24 09:00 8.6 87 7.48 6.5 0 1013.1 0 17.4 25.6 37.8 99.0 89.7 307.3
23 09:00 6.8 88 6.73 5 0 1013.1 0 15.9 24.8 35.5 93.0 81.5 278.4
22 09:00 8.2 95 7.96 7.4 0 1013.1 1 18.5 26.5 40.0 104.9 96.8 332.1
21 09:00 9.5 93 8.47 8.5 15 1013.1 7 19.5 27.0 41.5 108.9 102.2 351.3
20 09:00 9.5 93 8.47 8.5 7 1013.1 2 19.5 27.0 41.5 108.9 102.2 351.3
19 09:00 11 78 7.81 7.3 37 1013.1 6 18.0 25.4 38.0 99.6 91.3 313.4
18 09:00 11.5 82 8.47 8.5 19 1013.1 0 19.4 26.4 40.4 106.1 99.6 342.4
17 09:00 14 47 5.67 3 28 1013.1 0 13.3 21.4 28.6 74.6 61.6 209.5
16 09:00 8 100 8.27 8 0 1013.1 0.8 19.2 27.1 41.4 108.7 101.4 348.2
15 09:00 10.5 100 9.7 10.5 7 1013.1 1 22.1 28.8 46.2 121.5 118.2 407.3
14 09:00 11 93 9.31 10 0 1013.1 9 21.3 27.9 44.2 116.3 111.9 385.3
13 09:00 12 88 9.38 10.1 4 1013.1 0.6 21.4 27.7 44.0 115.6 111.4 383.8
12 09:00 13 88 9.98 11.1 7 1013.1 7 22.6 28.4 45.9 120.8 118.3 408.0
11 09:00 10.5 93 9.02 9.5 19 1013.1 0.2 20.7 27.6 43.3 113.7 108.5 373.5
10 09:00 8.5 80 6.83 5.2 11 1013.1 0 16.0 24.5 35.2 92.0 81.1 277.1
09 09:00 9.5 87 7.92 7.4 11 1013.1 1 18.3 26.0 39.2 102.7 94.6 324.7
08 09:00 8 93 7.69 6.9 7 1013.1 3 17.9 26.1 38.9 102.1 93.3 319.8
07 09:00 8 86 7.11 5.8 4 1013.1 0 16.7 25.1 36.5 95.7 85.4 292.1
06 09:00 9 51 4.5 -0.5 7 1013.1 0 11.0 20.8 26.1 67.8 51.3 172.6
05 09:00 7.6 75 6.04 3.4 6 1013.1 0 14.4 23.5 32.4 84.6 71.6 243.7
04 09:00 8.5 87 7.43 6.4 15 1013.1 0 17.3 25.5 37.6 98.6 89.1 305.4
03 09:00 12.5 73 8.03 7.9 4 1013.1 0 18.4 25.3 38.1 100.0 92.5 317.6
02 09:00 12.5 50 5.5 2.3 0 1013.1 0 13.0 21.5 28.5 74.3 60.8 206.3
31 09:00 8 93 7.69 6.9 0 1013.1 0 17.9 26.1 38.9 102.1 93.3 319.8
30 09:00 10.5 93 9.02 9.5 0 1013.1 0 20.7 27.6 43.3 113.7 108.5 373.5
29 09:00 10.6 92 8.98 9.4 0 1013.1 0 20.6 27.5 43.0 113.1 107.8 371.1
28 09:00 4.2 90 5.8 2.7 0 1013.1 0 14.0 24.0 32.8 85.8 71.5 243.1
27 09:00 9.4 95 8.59 8.6 0 1013.1 0 19.8 27.2 42.0 110.4 104.0 357.6
26 09:00 8.2 84 7.04 5.6 0 1013.1 0 16.5 24.9 36.2 94.7 84.2 288.0
25 09:00 8.6 97 8.34 8.2 0 1013.1 5 19.3 27.0 41.4 108.7 101.6 349.0
24 09:00 8.6 55 4.73 0.2 0 1013.1 0 11.5 21.2 27.1 70.4 54.3 183.2
22 09:00 6.2 85 6.25 3.9 0 1013.1 0 14.9 24.2 33.8 88.4 75.7 257.9
21 09:00 7.2 97 7.62 6.8 0 1013.1 0 17.8 26.2 39.0 102.4 93.3 319.7
20 09:00 9 80 7.06 5.8 0 1013.1 2 16.5 24.8 35.9 93.9 83.6 286.0
19 09:00 10.5 93 9.02 9.5 22 1013.1 0.2 20.7 27.6 43.3 113.7 108.5 373.5
17 09:00 8.2 70 5.86 3.1 0 1013.1 0 14.0 23.1 31.5 82.1 68.7 233.7
16 09:00 9.5 93 8.47 8.5 0 1013.1 0 19.5 27.0 41.5 108.9 102.2 351.3
14 09:00 7 96 7.44 6.4 0 1013.1 0 17.4 26.0 38.4 100.6 91.0 311.8
13 09:00 6 100 7.26 6 0 1013.1 0 17.1 25.9 38.1 99.9 89.7 307.0
12 09:00 6 97 7.04 5.6 0 1013.1 3 16.6 25.6 37.2 97.4 86.6 296.3
11 09:00 7.5 100 8.01 7.5 0 1013.1 2 18.6 26.8 40.6 106.4 98.4 337.6
10 09:00 10 56 5.26 1.8 0 1013.1 0 12.6 21.7 28.5 74.3 59.8 202.5
09 09:00 8 66 5.46 2.1 0 1013.1 0 13.1 22.5 30.0 78.2 63.8 216.5
08 09:00 5 87 5.92 3.1 0 1013.1 0 14.2 24.0 33.0 86.2 72.4 246.2
07 09:00 6 93 6.75 4.9 0 1013.1 0 16.0 25.1 36.0 94.1 82.6 282.3
06 09:00 9 93 8.2 8 7 1013.1 0 19.0 26.6 40.6 106.5 99.1 340.3
05 09:00 9 93 8.2 8 0 1013.1 0.4 19.0 26.6 40.6 106.5 99.1 340.3
04 09:00 7 93 7.21 5.9 0 1013.1 0.8 16.9 25.6 37.4 98.0 87.9 300.6
03 09:00 9 87 7.67 6.9 15 1013.1 1 17.8 25.8 38.4 100.6 91.8 314.8
02 09:00 7.2 97 7.62 6.8 0 1013.1 2 17.8 26.2 39.0 102.4 93.3 319.7
01 09:00 12 54 5.76 3 11 1013.1 0 13.6 22.0 29.7 77.3 64.3 218.6
30 09:00 8.2 57 4.78 0.3 0 1013.1 0 11.7 21.4 27.4 71.2 55.2 186.3
29 09:00 4.5 68 4.47 -0.8 0 1013.1 0 11.1 21.8 27.5 71.4 53.9 181.2
28 09:00 8 59 4.88 0.6 0 1013.1 0 11.9 21.6 27.8 72.4 56.6 191.1
27 09:00 7.5 72 5.77 2.8 0 1013.1 0 13.8 23.1 31.4 81.9 68.2 231.7
26 09:00 10 93 8.74 9 0 1013.1 0 20.1 27.3 42.3 111.2 105.3 362.2
25 09:00 11.5 100 10.33 11.5 0 1013.1 1 23.4 29.5 48.4 127.3 125.7 433.7
24 09:00 4.8 94 6.31 3.9 0 1013.1 0 15.1 24.7 34.7 90.7 77.9 265.4
23 09:00 9.2 81 7.24 6.2 0 1013.1 0 16.9 25.0 36.5 95.6 85.8 293.7
22 09:00 9.6 95 8.7 8.8 0 1013.1 0 20.0 27.3 42.4 111.3 105.3 362.1
21 09:00 9.2 95 8.49 8.4 19 1013.1 5 19.6 27.1 41.7 109.5 102.9 353.6
20 09:00 10.2 95 9.04 9.4 7 1013.1 2 20.7 27.7 43.5 114.4 109.3 376.0
19 09:00 13 40 4.54 -0.1 22 1013.1 0 11.0 20.0 25.0 64.9 49.2 165.9
18 09:00 9.5 80 7.28 6.3 7 1013.1 0 17.0 25.0 36.5 95.7 86.0 294.4
17 09:00 9.5 93 8.47 8.5 0 1013.1 0 19.5 27.0 41.5 108.9 102.2 351.3
16 09:00 11 87 8.71 9 0 1013.1 0 20.0 26.9 41.7 109.5 103.5 356.1
15 09:00 10.5 81 7.86 7.4 0 1013.1 0 18.2 25.6 38.4 100.7 92.6 317.7

Last Refresh: 27-Sep-2020 13:41:46

Most of the information presented on this site is sourced from the Bureau of Meteorology.  Copyright in all material sourced from the Bureau of Meteorology resides with the Commonwealth of Australia.